sensor_id;sensor_type;location;lat;lon;timestamp;P1;durP1;ratioP1;P2;durP2;ratioP2
11709;SDS011;5911;51.036;6.972;2022-07-11T00:00:03;4.35;;;2.03;;
11709;SDS011;5911;51.036;6.972;2022-07-11T00:02:33;3.38;;;1.85;;
11709;SDS011;5911;51.036;6.972;2022-07-11T00:05:01;5.30;;;2.70;;
11709;SDS011;5911;51.036;6.972;2022-07-11T00:07:29;3.15;;;2.05;;
11709;SDS011;5911;51.036;6.972;2022-07-11T00:09:58;5.35;;;2.25;;
11709;SDS011;5911;51.036;6.972;2022-07-11T00:12:26;5.35;;;2.00;;
11709;SDS011;5911;51.036;6.972;2022-07-11T00:14:54;4.03;;;1.88;;
11709;SDS011;5911;51.036;6.972;2022-07-11T00:17:22;4.65;;;2.28;;
11709;SDS011;5911;51.036;6.972;2022-07-11T00:19:50;4.28;;;2.17;;
11709;SDS011;5911;51.036;6.972;2022-07-11T00:22:18;4.55;;;2.17;;
11709;SDS011;5911;51.036;6.972;2022-07-11T00:24:46;2.92;;;1.63;;
11709;SDS011;5911;51.036;6.972;2022-07-11T00:27:16;3.88;;;2.20;;
11709;SDS011;5911;51.036;6.972;2022-07-11T00:29:44;3.60;;;2.00;;
11709;SDS011;5911;51.036;6.972;2022-07-11T00:32:11;2.38;;;1.92;;
11709;SDS011;5911;51.036;6.972;2022-07-11T00:34:39;2.70;;;2.00;;
11709;SDS011;5911;51.036;6.972;2022-07-11T00:37:07;6.53;;;2.50;;
11709;SDS011;5911;51.036;6.972;2022-07-11T00:39:35;3.75;;;2.15;;
11709;SDS011;5911;51.036;6.972;2022-07-11T00:42:03;2.55;;;1.95;;
11709;SDS011;5911;51.036;6.972;2022-07-11T00:44:32;3.38;;;2.10;;
11709;SDS011;5911;51.036;6.972;2022-07-11T00:47:02;5.57;;;2.05;;
11709;SDS011;5911;51.036;6.972;2022-07-11T00:49:31;3.22;;;2.00;;
11709;SDS011;5911;51.036;6.972;2022-07-11T00:51:58;4.18;;;2.70;;
11709;SDS011;5911;51.036;6.972;2022-07-11T00:54:26;3.83;;;1.90;;
11709;SDS011;5911;51.036;6.972;2022-07-11T00:56:55;4.57;;;2.30;;
11709;SDS011;5911;51.036;6.972;2022-07-11T00:59:23;3.33;;;2.03;;
11709;SDS011;5911;51.036;6.972;2022-07-11T01:01:52;3.15;;;1.95;;
11709;SDS011;5911;51.036;6.972;2022-07-11T01:04:21;2.88;;;1.90;;
11709;SDS011;5911;51.036;6.972;2022-07-11T01:06:49;2.78;;;2.50;;
11709;SDS011;5911;51.036;6.972;2022-07-11T01:09:16;4.13;;;2.22;;
11709;SDS011;5911;51.036;6.972;2022-07-11T01:11:44;3.08;;;2.10;;
11709;SDS011;5911;51.036;6.972;2022-07-11T01:14:12;3.50;;;2.28;;
11709;SDS011;5911;51.036;6.972;2022-07-11T01:16:40;4.28;;;2.00;;
11709;SDS011;5911;51.036;6.972;2022-07-11T01:19:09;3.80;;;2.08;;
11709;SDS011;5911;51.036;6.972;2022-07-11T01:21:38;3.13;;;2.08;;
11709;SDS011;5911;51.036;6.972;2022-07-11T01:24:08;4.63;;;2.08;;
11709;SDS011;5911;51.036;6.972;2022-07-11T01:26:36;3.17;;;2.05;;
11709;SDS011;5911;51.036;6.972;2022-07-11T01:29:04;2.65;;;2.17;;
11709;SDS011;5911;51.036;6.972;2022-07-11T01:31:33;3.95;;;2.35;;
11709;SDS011;5911;51.036;6.972;2022-07-11T01:34:01;4.15;;;2.38;;
11709;SDS011;5911;51.036;6.972;2022-07-11T01:36:29;3.13;;;1.95;;
11709;SDS011;5911;51.036;6.972;2022-07-11T01:38:57;3.72;;;2.35;;
11709;SDS011;5911;51.036;6.972;2022-07-11T01:41:26;4.35;;;2.10;;
11709;SDS011;5911;51.036;6.972;2022-07-11T01:43:54;2.58;;;2.20;;
11709;SDS011;5911;51.036;6.972;2022-07-11T01:46:22;6.28;;;2.88;;
11709;SDS011;5911;51.036;6.972;2022-07-11T01:48:50;2.88;;;2.17;;
11709;SDS011;5911;51.036;6.972;2022-07-11T01:51:18;2.83;;;2.15;;
11709;SDS011;5911;51.036;6.972;2022-07-11T01:53:46;4.38;;;2.53;;
11709;SDS011;5911;51.036;6.972;2022-07-11T01:56:13;5.10;;;2.42;;
11709;SDS011;5911;51.036;6.972;2022-07-11T01:58:47;3.08;;;2.22;;
11709;SDS011;5911;51.036;6.972;2022-07-11T02:01:15;3.30;;;2.08;;
11709;SDS011;5911;51.036;6.972;2022-07-11T02:03:43;4.68;;;2.58;;
11709;SDS011;5911;51.036;6.972;2022-07-11T02:06:12;5.70;;;2.35;;
11709;SDS011;5911;51.036;6.972;2022-07-11T02:08:40;5.60;;;2.72;;
11709;SDS011;5911;51.036;6.972;2022-07-11T02:11:08;6.18;;;2.47;;
11709;SDS011;5911;51.036;6.972;2022-07-11T02:13:36;3.78;;;2.55;;
11709;SDS011;5911;51.036;6.972;2022-07-11T02:16:06;5.25;;;2.67;;
11709;SDS011;5911;51.036;6.972;2022-07-11T02:18:34;2.75;;;2.42;;
11709;SDS011;5911;51.036;6.972;2022-07-11T02:21:02;3.17;;;2.53;;
11709;SDS011;5911;51.036;6.972;2022-07-11T02:23:30;3.05;;;2.53;;
11709;SDS011;5911;51.036;6.972;2022-07-11T02:25:58;5.85;;;2.70;;
11709;SDS011;5911;51.036;6.972;2022-07-11T02:28:26;3.90;;;2.50;;
11709;SDS011;5911;51.036;6.972;2022-07-11T02:30:54;4.07;;;2.30;;
11709;SDS011;5911;51.036;6.972;2022-07-11T02:33:23;2.60;;;2.40;;
11709;SDS011;5911;51.036;6.972;2022-07-11T02:35:51;3.78;;;2.75;;
11709;SDS011;5911;51.036;6.972;2022-07-11T02:38:19;5.32;;;2.95;;
11709;SDS011;5911;51.036;6.972;2022-07-11T02:40:47;3.35;;;2.35;;
11709;SDS011;5911;51.036;6.972;2022-07-11T02:43:15;3.78;;;2.45;;
11709;SDS011;5911;51.036;6.972;2022-07-11T02:45:43;5.78;;;3.30;;
11709;SDS011;5911;51.036;6.972;2022-07-11T02:48:11;3.15;;;2.30;;
11709;SDS011;5911;51.036;6.972;2022-07-11T02:50:40;4.93;;;2.70;;
11709;SDS011;5911;51.036;6.972;2022-07-11T02:53:08;4.57;;;2.85;;
11709;SDS011;5911;51.036;6.972;2022-07-11T02:55:36;5.10;;;3.10;;
11709;SDS011;5911;51.036;6.972;2022-07-11T02:58:04;6.03;;;3.20;;
11709;SDS011;5911;51.036;6.972;2022-07-11T03:00:32;6.85;;;2.63;;
11709;SDS011;5911;51.036;6.972;2022-07-11T03:03:00;5.20;;;3.00;;
11709;SDS011;5911;51.036;6.972;2022-07-11T03:05:29;6.73;;;3.97;;
11709;SDS011;5911;51.036;6.972;2022-07-11T03:07:58;6.15;;;3.15;;
11709;SDS011;5911;51.036;6.972;2022-07-11T03:10:26;3.80;;;2.83;;
11709;SDS011;5911;51.036;6.972;2022-07-11T03:12:54;3.78;;;2.40;;
11709;SDS011;5911;51.036;6.972;2022-07-11T03:15:22;5.10;;;2.90;;
11709;SDS011;5911;51.036;6.972;2022-07-11T03:17:50;4.33;;;2.90;;
11709;SDS011;5911;51.036;6.972;2022-07-11T03:20:18;4.40;;;2.80;;
11709;SDS011;5911;51.036;6.972;2022-07-11T03:22:45;7.30;;;3.00;;
11709;SDS011;5911;51.036;6.972;2022-07-11T03:25:15;5.30;;;2.90;;
11709;SDS011;5911;51.036;6.972;2022-07-11T03:27:43;4.63;;;3.15;;
11709;SDS011;5911;51.036;6.972;2022-07-11T03:30:10;4.97;;;2.70;;
11709;SDS011;5911;51.036;6.972;2022-07-11T03:32:41;4.78;;;2.90;;
11709;SDS011;5911;51.036;6.972;2022-07-11T03:35:08;4.37;;;2.80;;
11709;SDS011;5911;51.036;6.972;2022-07-11T03:37:53;5.43;;;3.30;;
11709;SDS011;5911;51.036;6.972;2022-07-11T03:40:22;4.23;;;3.10;;
11709;SDS011;5911;51.036;6.972;2022-07-11T03:42:50;5.63;;;2.78;;
11709;SDS011;5911;51.036;6.972;2022-07-11T03:45:18;6.30;;;3.30;;
11709;SDS011;5911;51.036;6.972;2022-07-11T03:47:46;7.40;;;3.65;;
11709;SDS011;5911;51.036;6.972;2022-07-11T03:50:14;6.67;;;3.30;;
11709;SDS011;5911;51.036;6.972;2022-07-11T03:52:42;4.93;;;3.20;;
11709;SDS011;5911;51.036;6.972;2022-07-11T03:55:11;7.70;;;3.30;;
11709;SDS011;5911;51.036;6.972;2022-07-11T03:57:40;5.40;;;3.10;;
11709;SDS011;5911;51.036;6.972;2022-07-11T04:00:09;3.63;;;3.23;;
11709;SDS011;5911;51.036;6.972;2022-07-11T04:02:37;8.27;;;3.30;;
11709;SDS011;5911;51.036;6.972;2022-07-11T04:05:06;7.37;;;3.83;;
11709;SDS011;5911;51.036;6.972;2022-07-11T04:07:34;7.00;;;3.13;;
11709;SDS011;5911;51.036;6.972;2022-07-11T04:10:02;5.63;;;3.22;;
11709;SDS011;5911;51.036;6.972;2022-07-11T04:12:30;4.78;;;3.50;;
11709;SDS011;5911;51.036;6.972;2022-07-11T04:14:59;4.70;;;3.07;;
11709;SDS011;5911;51.036;6.972;2022-07-11T04:17:27;6.80;;;3.27;;
11709;SDS011;5911;51.036;6.972;2022-07-11T04:19:55;6.10;;;3.50;;
11709;SDS011;5911;51.036;6.972;2022-07-11T04:22:23;4.90;;;3.20;;
11709;SDS011;5911;51.036;6.972;2022-07-11T04:24:52;6.70;;;3.43;;
11709;SDS011;5911;51.036;6.972;2022-07-11T04:27:21;5.77;;;3.40;;
11709;SDS011;5911;51.036;6.972;2022-07-11T04:29:55;3.92;;;3.20;;
11709;SDS011;5911;51.036;6.972;2022-07-11T04:32:25;6.70;;;3.40;;
11709;SDS011;5911;51.036;6.972;2022-07-11T04:34:53;5.70;;;3.17;;
11709;SDS011;5911;51.036;6.972;2022-07-11T04:37:20;5.28;;;3.03;;
11709;SDS011;5911;51.036;6.972;2022-07-11T04:39:48;9.57;;;3.90;;
11709;SDS011;5911;51.036;6.972;2022-07-11T04:42:16;7.17;;;3.53;;
11709;SDS011;5911;51.036;6.972;2022-07-11T04:44:44;6.50;;;3.30;;
11709;SDS011;5911;51.036;6.972;2022-07-11T04:47:12;6.07;;;3.30;;
11709;SDS011;5911;51.036;6.972;2022-07-11T04:49:41;6.10;;;4.45;;
11709;SDS011;5911;51.036;6.972;2022-07-11T04:52:13;5.18;;;3.55;;
11709;SDS011;5911;51.036;6.972;2022-07-11T04:54:40;8.00;;;4.00;;
11709;SDS011;5911;51.036;6.972;2022-07-11T04:57:08;6.40;;;3.63;;
11709;SDS011;5911;51.036;6.972;2022-07-11T04:59:36;6.93;;;3.97;;
11709;SDS011;5911;51.036;6.972;2022-07-11T05:02:05;11.63;;;4.20;;
11709;SDS011;5911;51.036;6.972;2022-07-11T05:04:33;8.63;;;4.03;;
11709;SDS011;5911;51.036;6.972;2022-07-11T05:07:02;8.90;;;4.43;;
11709;SDS011;5911;51.036;6.972;2022-07-11T05:09:30;8.05;;;3.85;;
11709;SDS011;5911;51.036;6.972;2022-07-11T05:11:58;8.23;;;4.05;;
11709;SDS011;5911;51.036;6.972;2022-07-11T05:14:26;8.10;;;3.58;;
11709;SDS011;5911;51.036;6.972;2022-07-11T05:16:54;7.57;;;4.00;;
11709;SDS011;5911;51.036;6.972;2022-07-11T05:19:22;5.50;;;3.75;;
11709;SDS011;5911;51.036;6.972;2022-07-11T05:21:50;5.63;;;4.03;;
11709;SDS011;5911;51.036;6.972;2022-07-11T05:24:19;6.80;;;4.30;;
11709;SDS011;5911;51.036;6.972;2022-07-11T05:26:46;5.03;;;3.63;;
11709;SDS011;5911;51.036;6.972;2022-07-11T05:29:14;7.00;;;3.83;;
11709;SDS011;5911;51.036;6.972;2022-07-11T05:31:42;7.20;;;4.00;;
11709;SDS011;5911;51.036;6.972;2022-07-11T05:34:16;6.03;;;3.87;;
11709;SDS011;5911;51.036;6.972;2022-07-11T05:36:44;5.35;;;3.80;;
11709;SDS011;5911;51.036;6.972;2022-07-11T05:39:12;7.53;;;4.28;;
11709;SDS011;5911;51.036;6.972;2022-07-11T05:41:43;6.82;;;3.70;;
11709;SDS011;5911;51.036;6.972;2022-07-11T05:44:10;5.53;;;4.47;;
11709;SDS011;5911;51.036;6.972;2022-07-11T05:46:38;6.07;;;4.53;;
11709;SDS011;5911;51.036;6.972;2022-07-11T05:49:06;5.82;;;4.15;;
11709;SDS011;5911;51.036;6.972;2022-07-11T05:51:34;5.97;;;3.45;;
11709;SDS011;5911;51.036;6.972;2022-07-11T05:54:02;5.15;;;3.60;;
11709;SDS011;5911;51.036;6.972;2022-07-11T05:56:30;5.00;;;3.60;;
11709;SDS011;5911;51.036;6.972;2022-07-11T05:58:59;7.32;;;3.92;;
11709;SDS011;5911;51.036;6.972;2022-07-11T06:01:27;7.82;;;3.60;;
11709;SDS011;5911;51.036;6.972;2022-07-11T06:04:02;6.72;;;3.83;;
11709;SDS011;5911;51.036;6.972;2022-07-11T06:06:30;9.20;;;3.72;;
11709;SDS011;5911;51.036;6.972;2022-07-11T06:09:02;11.07;;;3.58;;
11709;SDS011;5911;51.036;6.972;2022-07-11T06:11:30;4.97;;;3.60;;
11709;SDS011;5911;51.036;6.972;2022-07-11T06:13:58;4.45;;;3.17;;
11709;SDS011;5911;51.036;6.972;2022-07-11T06:16:27;6.30;;;3.28;;
11709;SDS011;5911;51.036;6.972;2022-07-11T06:18:55;4.95;;;2.83;;
11709;SDS011;5911;51.036;6.972;2022-07-11T06:21:23;4.72;;;2.88;;
11709;SDS011;5911;51.036;6.972;2022-07-11T06:23:51;4.18;;;2.95;;
11709;SDS011;5911;51.036;6.972;2022-07-11T06:26:19;4.63;;;2.58;;
11709;SDS011;5911;51.036;6.972;2022-07-11T06:28:47;3.63;;;2.72;;
11709;SDS011;5911;51.036;6.972;2022-07-11T06:31:17;4.82;;;3.25;;
11709;SDS011;5911;51.036;6.972;2022-07-11T06:33:45;4.32;;;2.47;;
11709;SDS011;5911;51.036;6.972;2022-07-11T06:36:21;3.40;;;2.47;;
11709;SDS011;5911;51.036;6.972;2022-07-11T06:38:50;3.40;;;2.20;;
11709;SDS011;5911;51.036;6.972;2022-07-11T06:41:18;3.17;;;2.22;;
11709;SDS011;5911;51.036;6.972;2022-07-11T06:43:46;2.72;;;1.83;;
11709;SDS011;5911;51.036;6.972;2022-07-11T06:46:14;2.22;;;1.60;;
11709;SDS011;5911;51.036;6.972;2022-07-11T06:48:43;3.22;;;1.60;;
11709;SDS011;5911;51.036;6.972;2022-07-11T06:51:12;3.67;;;1.35;;
11709;SDS011;5911;51.036;6.972;2022-07-11T06:53:40;2.85;;;1.58;;
11709;SDS011;5911;51.036;6.972;2022-07-11T06:56:08;1.65;;;1.40;;
11709;SDS011;5911;51.036;6.972;2022-07-11T06:58:36;2.00;;;1.30;;
11709;SDS011;5911;51.036;6.972;2022-07-11T07:01:04;1.48;;;1.30;;
11709;SDS011;5911;51.036;6.972;2022-07-11T07:03:34;3.00;;;1.65;;
11709;SDS011;5911;51.036;6.972;2022-07-11T07:06:03;2.20;;;1.77;;
11709;SDS011;5911;51.036;6.972;2022-07-11T07:08:32;5.05;;;1.83;;
11709;SDS011;5911;51.036;6.972;2022-07-11T07:11:00;2.40;;;1.95;;
11709;SDS011;5911;51.036;6.972;2022-07-11T07:13:33;2.88;;;2.00;;
11709;SDS011;5911;51.036;6.972;2022-07-11T07:16:01;2.58;;;1.73;;
11709;SDS011;5911;51.036;6.972;2022-07-11T07:18:31;3.72;;;2.58;;
11709;SDS011;5911;51.036;6.972;2022-07-11T07:20:59;6.88;;;5.57;;
11709;SDS011;5911;51.036;6.972;2022-07-11T07:23:28;7.50;;;5.15;;
11709;SDS011;5911;51.036;6.972;2022-07-11T07:25:56;12.00;;;10.10;;
11709;SDS011;5911;51.036;6.972;2022-07-11T07:28:23;13.05;;;10.52;;
11709;SDS011;5911;51.036;6.972;2022-07-11T07:30:54;10.25;;;8.60;;
11709;SDS011;5911;51.036;6.972;2022-07-11T07:33:22;11.05;;;9.55;;
11709;SDS011;5911;51.036;6.972;2022-07-11T07:36:09;12.77;;;10.52;;
11709;SDS011;5911;51.036;6.972;2022-07-11T07:38:38;12.57;;;9.80;;
11709;SDS011;5911;51.036;6.972;2022-07-11T07:41:08;10.60;;;8.45;;
11709;SDS011;5911;51.036;6.972;2022-07-11T07:43:37;12.00;;;8.45;;
11709;SDS011;5911;51.036;6.972;2022-07-11T07:46:05;10.45;;;8.13;;
11709;SDS011;5911;51.036;6.972;2022-07-11T07:48:35;9.90;;;8.18;;
11709;SDS011;5911;51.036;6.972;2022-07-11T07:51:03;12.02;;;8.35;;
11709;SDS011;5911;51.036;6.972;2022-07-11T07:53:31;10.45;;;7.43;;
11709;SDS011;5911;51.036;6.972;2022-07-11T07:56:00;9.15;;;7.45;;
11709;SDS011;5911;51.036;6.972;2022-07-11T07:58:28;13.75;;;9.45;;
11709;SDS011;5911;51.036;6.972;2022-07-11T08:00:56;14.05;;;10.60;;
11709;SDS011;5911;51.036;6.972;2022-07-11T08:03:41;14.68;;;12.50;;
11709;SDS011;5911;51.036;6.972;2022-07-11T08:06:09;17.73;;;14.40;;
11709;SDS011;5911;51.036;6.972;2022-07-11T08:08:37;19.20;;;15.07;;
11709;SDS011;5911;51.036;6.972;2022-07-11T08:11:06;21.83;;;15.90;;
11709;SDS011;5911;51.036;6.972;2022-07-11T08:13:54;15.15;;;12.93;;
11709;SDS011;5911;51.036;6.972;2022-07-11T08:16:22;18.63;;;14.27;;
11709;SDS011;5911;51.036;6.972;2022-07-11T08:18:50;19.05;;;13.63;;
11709;SDS011;5911;51.036;6.972;2022-07-11T08:21:19;13.05;;;11.50;;
11709;SDS011;5911;51.036;6.972;2022-07-11T08:23:47;18.95;;;12.23;;
11709;SDS011;5911;51.036;6.972;2022-07-11T08:26:16;14.02;;;11.23;;
11709;SDS011;5911;51.036;6.972;2022-07-11T08:28:44;16.55;;;11.73;;
11709;SDS011;5911;51.036;6.972;2022-07-11T08:31:12;13.20;;;11.80;;
11709;SDS011;5911;51.036;6.972;2022-07-11T08:33:40;11.88;;;10.63;;
11709;SDS011;5911;51.036;6.972;2022-07-11T08:36:08;11.30;;;10.13;;
11709;SDS011;5911;51.036;6.972;2022-07-11T08:38:37;13.63;;;10.95;;
11709;SDS011;5911;51.036;6.972;2022-07-11T08:41:05;13.50;;;11.30;;
11709;SDS011;5911;51.036;6.972;2022-07-11T08:43:35;11.25;;;10.18;;
11709;SDS011;5911;51.036;6.972;2022-07-11T08:46:02;11.40;;;10.18;;
11709;SDS011;5911;51.036;6.972;2022-07-11T08:48:32;11.02;;;9.80;;
11709;SDS011;5911;51.036;6.972;2022-07-11T08:51:01;11.80;;;10.63;;
11709;SDS011;5911;51.036;6.972;2022-07-11T08:53:29;11.55;;;10.35;;
11709;SDS011;5911;51.036;6.972;2022-07-11T08:55:58;11.55;;;10.35;;
11709;SDS011;5911;51.036;6.972;2022-07-11T08:58:27;12.15;;;10.95;;
11709;SDS011;5911;51.036;6.972;2022-07-11T09:00:56;12.52;;;11.20;;
11709;SDS011;5911;51.036;6.972;2022-07-11T09:03:25;13.70;;;10.85;;
11709;SDS011;5911;51.036;6.972;2022-07-11T09:05:53;11.60;;;9.48;;
11709;SDS011;5911;51.036;6.972;2022-07-11T09:08:27;13.65;;;9.27;;
11709;SDS011;5911;51.036;6.972;2022-07-11T09:10:56;11.90;;;9.30;;
11709;SDS011;5911;51.036;6.972;2022-07-11T09:13:27;10.00;;;9.10;;
11709;SDS011;5911;51.036;6.972;2022-07-11T09:16:01;10.25;;;9.23;;
11709;SDS011;5911;51.036;6.972;2022-07-11T09:18:33;8.82;;;8.02;;
11709;SDS011;5911;51.036;6.972;2022-07-11T09:21:03;9.90;;;9.00;;
11709;SDS011;5911;51.036;6.972;2022-07-11T09:23:51;10.75;;;8.55;;
11709;SDS011;5911;51.036;6.972;2022-07-11T09:26:38;10.90;;;9.80;;
11709;SDS011;5911;51.036;6.972;2022-07-11T09:29:07;13.82;;;11.18;;
11709;SDS011;5911;51.036;6.972;2022-07-11T09:31:38;14.63;;;12.00;;
11709;SDS011;5911;51.036;6.972;2022-07-11T09:34:08;13.73;;;12.43;;
11709;SDS011;5911;51.036;6.972;2022-07-11T09:36:37;12.73;;;11.43;;
11709;SDS011;5911;51.036;6.972;2022-07-11T09:39:09;12.70;;;11.43;;
11709;SDS011;5911;51.036;6.972;2022-07-11T09:41:39;12.63;;;11.43;;
11709;SDS011;5911;51.036;6.972;2022-07-11T09:44:08;12.52;;;10.57;;
11709;SDS011;5911;51.036;6.972;2022-07-11T09:46:38;10.65;;;9.60;;
11709;SDS011;5911;51.036;6.972;2022-07-11T09:49:06;11.10;;;10.10;;
11709;SDS011;5911;51.036;6.972;2022-07-11T09:51:35;14.82;;;10.70;;
11709;SDS011;5911;51.036;6.972;2022-07-11T09:54:04;11.55;;;10.40;;
11709;SDS011;5911;51.036;6.972;2022-07-11T09:56:33;10.43;;;9.50;;
11709;SDS011;5911;51.036;6.972;2022-07-11T09:59:21;10.95;;;9.85;;
11709;SDS011;5911;51.036;6.972;2022-07-11T10:01:51;10.90;;;9.80;;
11709;SDS011;5911;51.036;6.972;2022-07-11T10:04:20;11.68;;;10.50;;
11709;SDS011;5911;51.036;6.972;2022-07-11T10:06:48;12.48;;;10.13;;
11709;SDS011;5911;51.036;6.972;2022-07-11T10:09:16;12.13;;;11.02;;
11709;SDS011;5911;51.036;6.972;2022-07-11T10:11:44;11.93;;;10.45;;
11709;SDS011;5911;51.036;6.972;2022-07-11T10:14:12;11.13;;;10.13;;
11709;SDS011;5911;51.036;6.972;2022-07-11T10:16:42;12.93;;;11.77;;
11709;SDS011;5911;51.036;6.972;2022-07-11T10:19:24;12.13;;;10.85;;
11709;SDS011;5911;51.036;6.972;2022-07-11T10:22:06;12.50;;;10.20;;
11709;SDS011;5911;51.036;6.972;2022-07-11T10:24:49;12.88;;;11.02;;
11709;SDS011;5911;51.036;6.972;2022-07-11T10:27:26;14.13;;;11.85;;
11709;SDS011;5911;51.036;6.972;2022-07-11T10:30:07;13.85;;;12.02;;
11709;SDS011;5911;51.036;6.972;2022-07-11T10:35:29;11.00;;;9.88;;
11709;SDS011;5911;51.036;6.972;2022-07-11T10:37:58;11.10;;;10.07;;
11709;SDS011;5911;51.036;6.972;2022-07-11T10:40:42;11.55;;;10.45;;
11709;SDS011;5911;51.036;6.972;2022-07-11T10:43:12;11.05;;;10.05;;
11709;SDS011;5911;51.036;6.972;2022-07-11T10:45:49;11.43;;;9.90;;
11709;SDS011;5911;51.036;6.972;2022-07-11T10:48:27;11.05;;;9.98;;
11709;SDS011;5911;51.036;6.972;2022-07-11T10:51:11;12.32;;;10.63;;
11709;SDS011;5911;51.036;6.972;2022-07-11T10:53:47;11.90;;;10.70;;
11709;SDS011;5911;51.036;6.972;2022-07-11T10:56:22;12.70;;;11.50;;
11709;SDS011;5911;51.036;6.972;2022-07-11T10:59:20;13.50;;;12.23;;
11709;SDS011;5911;51.036;6.972;2022-07-11T11:04:42;13.63;;;12.48;;
11709;SDS011;5911;51.036;6.972;2022-07-11T11:07:28;13.85;;;12.45;;
11709;SDS011;5911;51.036;6.972;2022-07-11T11:10:05;14.15;;;12.75;;
11709;SDS011;5911;51.036;6.972;2022-07-11T11:15:39;14.32;;;12.82;;
11709;SDS011;5911;51.036;6.972;2022-07-11T11:21:13;14.48;;;13.05;;
11709;SDS011;5911;51.036;6.972;2022-07-11T11:24:02;13.73;;;12.45;;
11709;SDS011;5911;51.036;6.972;2022-07-11T11:26:45;14.00;;;12.52;;
11709;SDS011;5911;51.036;6.972;2022-07-11T11:29:24;14.40;;;12.55;;
11709;SDS011;5911;51.036;6.972;2022-07-11T11:31:56;13.57;;;12.27;;
11709;SDS011;5911;51.036;6.972;2022-07-11T11:34:25;14.15;;;12.75;;
11709;SDS011;5911;51.036;6.972;2022-07-11T11:37:00;13.52;;;12.23;;
11709;SDS011;5911;51.036;6.972;2022-07-11T11:39:31;13.50;;;12.10;;
11709;SDS011;5911;51.036;6.972;2022-07-11T11:42:01;14.05;;;12.65;;
11709;SDS011;5911;51.036;6.972;2022-07-11T11:44:34;14.48;;;13.00;;
11709;SDS011;5911;51.036;6.972;2022-07-11T11:47:14;15.05;;;13.60;;
11709;SDS011;5911;51.036;6.972;2022-07-11T11:49:42;13.70;;;12.50;;
11709;SDS011;5911;51.036;6.972;2022-07-11T11:52:10;15.35;;;13.75;;
11709;SDS011;5911;51.036;6.972;2022-07-11T11:54:40;13.98;;;12.70;;
11709;SDS011;5911;51.036;6.972;2022-07-11T11:57:09;15.25;;;13.50;;
11709;SDS011;5911;51.036;6.972;2022-07-11T11:59:38;15.85;;;14.43;;
11709;SDS011;5911;51.036;6.972;2022-07-11T12:02:08;16.48;;;14.77;;
11709;SDS011;5911;51.036;6.972;2022-07-11T12:04:37;16.05;;;14.50;;
11709;SDS011;5911;51.036;6.972;2022-07-11T12:07:06;15.55;;;14.13;;
11709;SDS011;5911;51.036;6.972;2022-07-11T12:09:34;15.75;;;14.07;;
11709;SDS011;5911;51.036;6.972;2022-07-11T12:12:20;14.20;;;12.80;;
11709;SDS011;5911;51.036;6.972;2022-07-11T12:15:22;15.30;;;13.73;;
11709;SDS011;5911;51.036;6.972;2022-07-11T12:17:55;15.80;;;13.48;;
11709;SDS011;5911;51.036;6.972;2022-07-11T12:20:36;16.27;;;14.30;;
11709;SDS011;5911;51.036;6.972;2022-07-11T12:23:06;13.95;;;12.63;;
11709;SDS011;5911;51.036;6.972;2022-07-11T12:25:43;14.63;;;13.18;;
11709;SDS011;5911;51.036;6.972;2022-07-11T12:28:14;14.52;;;13.02;;
11709;SDS011;5911;51.036;6.972;2022-07-11T12:30:42;14.98;;;13.57;;
11709;SDS011;5911;51.036;6.972;2022-07-11T12:33:10;14.35;;;13.05;;
11709;SDS011;5911;51.036;6.972;2022-07-11T12:35:52;13.52;;;12.32;;
11709;SDS011;5911;51.036;6.972;2022-07-11T12:38:21;13.57;;;12.18;;
11709;SDS011;5911;51.036;6.972;2022-07-11T12:40:59;12.23;;;11.02;;
11709;SDS011;5911;51.036;6.972;2022-07-11T12:43:39;12.35;;;11.18;;
11709;SDS011;5911;51.036;6.972;2022-07-11T12:46:27;12.80;;;11.60;;
11709;SDS011;5911;51.036;6.972;2022-07-11T12:48:56;12.45;;;11.25;;
11709;SDS011;5911;51.036;6.972;2022-07-11T12:51:26;12.00;;;10.50;;
11709;SDS011;5911;51.036;6.972;2022-07-11T12:53:58;12.15;;;11.05;;
11709;SDS011;5911;51.036;6.972;2022-07-11T12:56:27;11.85;;;10.65;;
11709;SDS011;5911;51.036;6.972;2022-07-11T12:58:57;11.70;;;10.70;;
11709;SDS011;5911;51.036;6.972;2022-07-11T13:01:25;12.23;;;11.13;;
11709;SDS011;5911;51.036;6.972;2022-07-11T13:03:53;12.98;;;11.68;;
11709;SDS011;5911;51.036;6.972;2022-07-11T13:06:21;12.27;;;11.23;;
11709;SDS011;5911;51.036;6.972;2022-07-11T13:09:03;12.05;;;10.90;;
11709;SDS011;5911;51.036;6.972;2022-07-11T13:11:31;12.70;;;11.60;;
11709;SDS011;5911;51.036;6.972;2022-07-11T13:14:01;13.18;;;11.90;;
11709;SDS011;5911;51.036;6.972;2022-07-11T13:16:28;14.07;;;12.77;;
11709;SDS011;5911;51.036;6.972;2022-07-11T13:18:56;12.63;;;11.25;;
11709;SDS011;5911;51.036;6.972;2022-07-11T13:21:25;11.07;;;9.98;;
11709;SDS011;5911;51.036;6.972;2022-07-11T13:23:53;12.27;;;10.93;;
11709;SDS011;5911;51.036;6.972;2022-07-11T13:26:21;12.25;;;10.82;;
11709;SDS011;5911;51.036;6.972;2022-07-11T13:28:49;12.75;;;11.60;;
11709;SDS011;5911;51.036;6.972;2022-07-11T13:31:18;12.63;;;11.32;;
11709;SDS011;5911;51.036;6.972;2022-07-11T13:33:47;12.85;;;11.75;;
11709;SDS011;5911;51.036;6.972;2022-07-11T13:36:15;12.90;;;11.70;;
11709;SDS011;5911;51.036;6.972;2022-07-11T13:38:43;12.32;;;11.02;;
11709;SDS011;5911;51.036;6.972;2022-07-11T13:41:11;12.50;;;11.23;;
11709;SDS011;5911;51.036;6.972;2022-07-11T13:43:43;11.13;;;10.13;;
11709;SDS011;5911;51.036;6.972;2022-07-11T13:46:11;10.48;;;9.57;;
11709;SDS011;5911;51.036;6.972;2022-07-11T13:48:40;10.90;;;9.90;;
11709;SDS011;5911;51.036;6.972;2022-07-11T13:51:09;11.65;;;10.25;;
11709;SDS011;5911;51.036;6.972;2022-07-11T13:53:37;11.02;;;10.00;;
11709;SDS011;5911;51.036;6.972;2022-07-11T13:56:05;11.75;;;10.52;;
11709;SDS011;5911;51.036;6.972;2022-07-11T13:58:33;11.90;;;10.80;;
11709;SDS011;5911;51.036;6.972;2022-07-11T14:01:01;11.60;;;10.57;;
11709;SDS011;5911;51.036;6.972;2022-07-11T14:03:29;10.65;;;9.77;;
11709;SDS011;5911;51.036;6.972;2022-07-11T14:05:59;10.65;;;9.75;;
11709;SDS011;5911;51.036;6.972;2022-07-11T14:08:26;10.35;;;9.45;;
11709;SDS011;5911;51.036;6.972;2022-07-11T14:10:54;11.40;;;10.32;;
11709;SDS011;5911;51.036;6.972;2022-07-11T14:13:23;11.27;;;10.13;;
11709;SDS011;5911;51.036;6.972;2022-07-11T14:15:51;10.32;;;9.43;;
11709;SDS011;5911;51.036;6.972;2022-07-11T14:18:19;9.75;;;8.85;;
11709;SDS011;5911;51.036;6.972;2022-07-11T14:20:47;9.23;;;8.43;;
11709;SDS011;5911;51.036;6.972;2022-07-11T14:23:16;9.55;;;8.75;;
11709;SDS011;5911;51.036;6.972;2022-07-11T14:25:44;9.10;;;8.30;;
11709;SDS011;5911;51.036;6.972;2022-07-11T14:28:13;9.80;;;9.00;;
11709;SDS011;5911;51.036;6.972;2022-07-11T14:30:48;11.07;;;10.07;;
11709;SDS011;5911;51.036;6.972;2022-07-11T14:33:16;10.70;;;9.70;;
11709;SDS011;5911;51.036;6.972;2022-07-11T14:35:44;11.07;;;10.18;;
11709;SDS011;5911;51.036;6.972;2022-07-11T14:38:12;11.32;;;10.43;;
11709;SDS011;5911;51.036;6.972;2022-07-11T14:40:41;12.13;;;10.95;;
11709;SDS011;5911;51.036;6.972;2022-07-11T14:43:09;10.90;;;10.05;;
11709;SDS011;5911;51.036;6.972;2022-07-11T14:45:37;11.10;;;10.20;;
11709;SDS011;5911;51.036;6.972;2022-07-11T14:48:05;11.20;;;10.20;;
11709;SDS011;5911;51.036;6.972;2022-07-11T14:50:33;9.82;;;8.93;;
11709;SDS011;5911;51.036;6.972;2022-07-11T14:53:01;10.80;;;9.90;;
11709;SDS011;5911;51.036;6.972;2022-07-11T14:55:29;10.63;;;9.73;;
11709;SDS011;5911;51.036;6.972;2022-07-11T14:57:58;10.85;;;9.95;;
11709;SDS011;5911;51.036;6.972;2022-07-11T15:00:26;10.38;;;9.57;;
11709;SDS011;5911;51.036;6.972;2022-07-11T15:02:54;9.77;;;9.07;;
11709;SDS011;5911;51.036;6.972;2022-07-11T15:05:39;9.93;;;9.13;;
11709;SDS011;5911;51.036;6.972;2022-07-11T15:08:07;10.43;;;9.55;;
11709;SDS011;5911;51.036;6.972;2022-07-11T15:10:52;10.63;;;9.68;;
11709;SDS011;5911;51.036;6.972;2022-07-11T15:13:39;9.35;;;8.55;;
11709;SDS011;5911;51.036;6.972;2022-07-11T15:16:07;9.65;;;8.85;;
11709;SDS011;5911;51.036;6.972;2022-07-11T15:18:34;8.45;;;7.82;;